KOFK/OFK METAR and TAF weather

Enter ICAO airport designator
Station Type Date Time Source
KOFK METAR 2019/10/23 20:56 UTC NOAA

KOFK 232056Z AUTO 34011KT 10SM BKN055 BKN070 OVC090 10/04 A2995 RMK AO2 SLP147 T01000044 53019


Station Type Date Time Source
KOFK Decoded METAR 2019/10/23 20:56 UTC NOAA

KARL STEFAN MEMORIAL AIRPORT, NE, United States (KOFK) 41-59N 097-26W 470M
Oct 23, 2019 - 04:56 PM EDT / 2019.10.23 2056 UTC
Wind: from the NNW (340 degrees) at 13 MPH (11 KT):0
Visibility: 10 mile(s):0
Sky conditions: overcast
Temperature: 50.0 F (10.0 C)
Dew Point: 39.9 F (4.4 C)
Relative Humidity: 68%
Pressure (altimeter): 29.95 in. Hg (1014 hPa)
Pressure tendency: 0.06 inches (1.9 hPa) higher than three hours ago
ob: KOFK 232056Z AUTO 34011KT 10SM BKN055 BKN070 OVC090 10/04 A2995 RMK AO2 SLP147 T01000044 53019
cycle: 21

Station Type Date Time Source
KOFK TAF 2019/10/23 20:57 UTC NOAA

TAF
AMD KOFK 231954Z 2320/2418 34014G24KT P6SM SCT015 BKN045
FM240000 35014KT P6SM OVC015
FM240200 34010KT P6SM SCT030

Example: see airport list